Terminal Aerodrome Forecast
Issued by NWS

Home | Current Version | Previous Version | Text Only | Print | Product List | Glossary Off
Versions: 1 2 3 4 5 6 7 8 9 10 11 12 13 14 15 16 17 18 19 20 21

669
FTUS43 KUNR 210524
TAFGCC
TAF
KGCC 210524Z 2106/2206 34010KT 3SM -SN SCT009 OVC030
     FM211200 35008KT P6SM OVC030
     FM211700 26006KT P6SM BKN250
     FM220200 18010KT P6SM BKN200=

USA.gov is the U.S. government's official web portal to all federal, state and local government web resources and services.